Time;durP1;ratioP1;P1;durP2;ratioP2;P2;SDS_P1;SDS_P2;PMS_P1;PMS_P2;Temp;Humidity;BMP_temperature;BMP_pressure;BME280_temperature;BME280_humidity;BME280_pressure;Samples;Min_cycle;Max_cycle;Signal;HPM_P1;HPM_P2
2021/09/26 00:00:37;;;;;;;9.25;8.25;;;;;;;14.67;87.04;100874.00;5052894;28;20093;-78
2021/09/26 00:03:02;;;;;;;9.13;7.30;;;;;;;14.68;86.85;100874.88;5051384;28;20087;-77
2021/09/26 00:05:28;;;;;;;8.65;7.15;;;;;;;14.70;87.09;100870.41;5051818;28;20446;-79
2021/09/26 00:07:53;;;;;;;9.68;8.35;;;;;;;14.66;86.96;100868.72;5034676;28;20047;-78
2021/09/26 00:10:19;;;;;;;9.88;7.32;;;;;;;14.58;87.40;100862.66;5050762;28;20116;-78
2021/09/26 00:12:45;;;;;;;8.02;7.22;;;;;;;14.52;87.28;100862.75;5053102;28;20041;-78
2021/09/26 00:15:18;;;;;;;7.80;6.97;;;;;;;14.53;87.03;100862.72;5050300;28;20026;-78
2021/09/26 00:17:44;;;;;;;9.20;7.03;;;;;;;14.53;86.69;100864.50;5052809;28;20045;-78
2021/09/26 00:20:11;;;;;;;7.85;7.05;;;;;;;14.54;86.98;100868.91;5051013;28;20029;-79
2021/09/26 00:22:37;;;;;;;8.30;7.28;;;;;;;14.56;86.91;100864.44;5052323;28;20402;-78
2021/09/26 00:25:04;;;;;;;9.52;7.82;;;;;;;14.56;86.71;100875.06;5049866;28;20079;-78
2021/09/26 00:27:29;;;;;;;7.78;6.97;;;;;;;14.56;86.82;100869.75;5052359;28;20080;-78
2021/09/26 00:29:54;;;;;;;10.70;8.55;;;;;;;14.57;86.84;100871.53;5049186;28;20034;-79
2021/09/26 00:32:20;;;;;;;9.82;8.77;;;;;;;14.57;86.75;100868.88;5022830;28;20034;-79
2021/09/26 00:34:46;;;;;;;10.85;8.02;;;;;;;14.56;86.80;100869.75;5051246;28;20509;-78
2021/09/26 00:37:12;;;;;;;10.05;7.35;;;;;;;14.55;86.77;100874.22;5048641;28;20049;-78
2021/09/26 00:39:38;;;;;;;8.93;6.78;;;;;;;14.52;86.96;100868.91;5051325;28;20033;-78
2021/09/26 00:42:03;;;;;;;12.25;9.70;;;;;;;14.48;86.56;100868.06;5032206;28;20469;-77
2021/09/26 00:44:29;;;;;;;9.27;8.18;;;;;;;14.42;86.75;100862.00;5041046;28;20034;-78
2021/09/26 00:46:55;;;;;;;8.02;6.97;;;;;;;14.39;86.89;100862.94;5050467;28;20056;-78
2021/09/26 00:49:21;;;;;;;8.20;7.28;;;;;;;14.37;86.79;100867.38;5040415;28;20041;-79
2021/09/26 00:51:48;;;;;;;9.88;8.88;;;;;;;14.35;86.82;100866.53;5050388;28;20035;-78
2021/09/26 00:54:16;;;;;;;11.82;10.43;;;;;;;14.32;88.02;100865.72;5049185;28;20033;-78
2021/09/26 00:56:41;;;;;;;9.15;8.25;;;;;;;14.29;87.81;100865.78;5032991;28;20037;-79
2021/09/26 00:59:07;;;;;;;10.95;9.75;;;;;;;14.22;88.11;100862.31;5024144;28;20050;-78
2021/09/26 01:01:32;;;;;;;9.93;8.77;;;;;;;14.20;88.04;100870.31;5033485;28;20045;-78
2021/09/26 01:03:59;;;;;;;9.63;8.02;;;;;;;14.21;88.01;100868.53;5022515;28;20045;-78
2021/09/26 01:07:03;;;;;;;11.32;9.80;;;;;;;14.21;88.54;100869.41;5018815;28;20104;-78
2021/09/26 01:09:56;;;;;;;10.15;8.73;;;;;;;14.16;88.46;100865.94;5028905;28;20053;-78
2021/09/26 01:12:33;;;;;;;9.27;7.63;;;;;;;14.15;88.37;100858.03;5044729;28;20041;-78
2021/09/26 01:15:11;;;;;;;9.35;8.30;;;;;;;14.13;88.37;100866.00;5037606;28;20538;-78
2021/09/26 01:17:45;;;;;;;11.02;8.45;;;;;;;14.15;88.29;100869.53;5049890;28;20039;-78
2021/09/26 01:20:46;;;;;;;9.00;7.95;;;;;;;14.14;88.47;100862.44;5044706;28;20399;-78
2021/09/26 01:23:35;;;;;;;9.68;7.85;;;;;;;14.13;88.08;100875.75;5040984;28;20049;-78
2021/09/26 01:26:32;;;;;;;9.73;8.30;;;;;;;14.12;87.75;100872.22;5022102;28;20044;-78
2021/09/26 01:29:39;;;;;;;11.57;8.65;;;;;;;14.11;88.24;100870.44;5008784;28;20118;-78
2021/09/26 01:32:06;;;;;;;10.75;9.68;;;;;;;14.11;87.83;100875.75;4989456;28;20045;-78
2021/09/26 01:34:43;;;;;;;9.95;8.05;;;;;;;14.10;88.16;100879.31;5036340;28;20087;-79
2021/09/26 01:37:26;;;;;;;9.80;8.63;;;;;;;14.09;88.46;100879.34;5047577;28;20042;-79
2021/09/26 01:40:02;;;;;;;9.65;8.65;;;;;;;14.07;88.58;100875.81;5049941;28;20569;-78
2021/09/26 01:42:46;;;;;;;10.77;8.55;;;;;;;14.05;88.11;100872.34;5045246;28;20114;-79
2021/09/26 01:45:34;;;;;;;11.23;8.63;;;;;;;14.00;88.30;100867.97;5049871;28;20038;-78
2021/09/26 01:48:04;;;;;;;9.57;8.57;;;;;;;13.98;88.66;100877.72;5047164;28;20044;-78
2021/09/26 01:50:30;;;;;;;10.05;7.82;;;;;;;13.96;88.35;100878.63;5046049;28;20094;-78
2021/09/26 01:52:58;;;;;;;9.80;8.77;;;;;;;13.92;88.16;100877.81;5050814;28;20045;-78
2021/09/26 01:55:26;;;;;;;12.48;9.43;;;;;;;13.91;88.62;100878.72;5049125;28;20112;-78
2021/09/26 01:57:54;;;;;;;10.63;8.68;;;;;;;13.90;88.43;100882.25;5053027;28;20491;-78
2021/09/26 02:00:19;;;;;;;8.30;7.43;;;;;;;13.91;88.64;100885.78;5049425;28;20052;-78
2021/09/26 02:02:48;;;;;;;11.40;8.60;;;;;;;13.91;88.30;100881.38;5051269;28;20450;-78
2021/09/26 02:05:14;;;;;;;8.65;6.78;;;;;;;13.90;88.57;100884.91;5022915;28;20033;-78
2021/09/26 02:07:43;;;;;;;9.02;7.75;;;;;;;13.90;88.51;100873.44;5051327;28;20029;-79
2021/09/26 02:10:10;;;;;;;7.88;6.93;;;;;;;13.87;88.16;100879.66;5048692;28;20033;-78
2021/09/26 02:12:35;;;;;;;9.07;7.97;;;;;;;13.86;88.48;100877.91;5034612;28;20041;-79
2021/09/26 02:15:10;;;;;;;9.23;7.72;;;;;;;13.85;88.23;100878.78;5048797;28;20063;-78
2021/09/26 02:17:37;;;;;;;8.57;7.68;;;;;;;13.84;88.42;100884.13;5046622;28;20039;-78
2021/09/26 02:20:04;;;;;;;9.73;8.10;;;;;;;13.82;88.39;100889.44;5051569;28;20037;-79
2021/09/26 02:22:32;;;;;;;9.48;8.32;;;;;;;13.82;88.50;100890.31;5044927;28;20055;-78
2021/09/26 02:25:00;;;;;;;8.38;6.72;;;;;;;13.80;88.29;100891.25;5045269;28;20097;-78
2021/09/26 02:27:26;;;;;;;8.88;6.75;;;;;;;13.77;87.88;100894.81;5051524;28;20039;-79
2021/09/26 02:29:51;;;;;;;9.40;7.28;;;;;;;13.73;87.97;100889.59;5048486;28;20083;-79
2021/09/26 02:32:17;;;;;;;8.63;7.80;;;;;;;13.68;88.02;100887.00;5050745;28;20040;-78
2021/09/26 02:34:42;;;;;;;9.57;8.45;;;;;;;13.66;87.82;100887.91;5046658;28;20052;-78
2021/09/26 02:37:07;;;;;;;8.32;7.22;;;;;;;13.62;87.80;100881.75;5038336;28;20056;-79
2021/09/26 02:39:33;;;;;;;7.47;6.57;;;;;;;13.59;87.75;100885.31;5050466;28;20108;-78
2021/09/26 02:42:16;;;;;;;8.65;7.75;;;;;;;13.51;87.71;100887.19;5050569;28;20044;-78
2021/09/26 02:45:05;;;;;;;9.95;8.93;;;;;;;13.43;88.35;100889.06;5044596;28;20059;-79
2021/09/26 02:47:38;;;;;;;7.88;6.82;;;;;;;13.42;88.32;100881.16;5047852;28;20102;-78
2021/09/26 02:50:04;;;;;;;9.02;7.20;;;;;;;13.36;88.09;100882.97;5044658;28;20092;-78
2021/09/26 02:52:30;;;;;;;7.55;6.55;;;;;;;13.36;88.51;100882.06;5043331;28;20515;-78
2021/09/26 02:54:56;;;;;;;7.55;6.18;;;;;;;13.33;88.13;100883.00;5051059;28;20097;-78
2021/09/26 02:57:22;;;;;;;10.20;9.18;;;;;;;13.31;88.58;100878.63;5047587;28;20037;-78
2021/09/26 02:59:49;;;;;;;8.75;6.80;;;;;;;13.28;88.11;100873.34;5050734;28;20033;-79
2021/09/26 03:02:14;;;;;;;7.28;6.57;;;;;;;13.25;88.10;100878.66;5047543;28;20041;-79
2021/09/26 03:04:44;;;;;;;7.15;5.50;;;;;;;13.24;88.19;100882.22;5049692;28;20041;-79
2021/09/26 03:07:11;;;;;;;9.55;6.68;;;;;;;13.20;88.26;100885.78;5048085;28;20411;-77
2021/09/26 03:09:37;;;;;;;8.48;7.53;;;;;;;13.17;88.21;100873.44;5050353;28;20106;-78
2021/09/26 03:12:10;;;;;;;7.63;6.70;;;;;;;13.13;88.07;100885.84;5049125;28;20069;-79
2021/09/26 03:14:35;;;;;;;10.52;7.95;;;;;;;13.07;87.70;100888.59;5050537;28;20549;-78
2021/09/26 03:17:01;;;;;;;8.88;7.80;;;;;;;13.02;88.21;100887.75;5048837;28;20041;-79
2021/09/26 03:19:26;;;;;;;9.88;8.02;;;;;;;12.91;87.96;100887.84;5049654;28;20064;-78
2021/09/26 03:21:51;;;;;;;8.55;7.60;;;;;;;12.86;88.14;100897.63;5052567;28;20028;-78
2021/09/26 03:24:16;;;;;;;10.23;7.93;;;;;;;12.78;87.91;100890.63;5053700;28;20068;-79
2021/09/26 03:26:42;;;;;;;8.57;6.32;;;;;;;12.75;88.00;100895.97;5054406;28;20041;-79
2021/09/26 03:29:07;;;;;;;6.95;6.25;;;;;;;12.70;88.32;100896.00;5026537;28;20048;-79
2021/09/26 03:31:32;;;;;;;7.95;7.05;;;;;;;12.67;88.37;100896.03;5054617;28;20039;-79
2021/09/26 03:33:59;;;;;;;10.38;5.88;;;;;;;12.64;88.59;100894.28;5052043;28;20038;-78
2021/09/26 03:36:25;;;;;;;7.65;6.40;;;;;;;12.60;88.38;100895.22;5054665;28;20040;-78
2021/09/26 03:38:50;;;;;;;9.93;7.65;;;;;;;12.52;88.45;100894.38;5051778;28;20125;-78
2021/09/26 03:41:17;;;;;;;8.10;7.30;;;;;;;12.47;89.19;100896.19;5055099;28;20452;-79
2021/09/26 03:43:42;;;;;;;8.10;7.25;;;;;;;12.43;88.82;100897.13;5048403;28;20057;-78
2021/09/26 03:46:07;;;;;;;10.57;8.10;;;;;;;12.45;89.13;100895.34;5054335;28;20041;-79
2021/09/26 03:48:33;;;;;;;10.95;8.95;;;;;;;12.46;89.18;100897.09;5055424;28;20041;-79
2021/09/26 03:50:58;;;;;;;7.30;6.50;;;;;;;12.43;88.96;100891.81;5053239;28;20039;-78
2021/09/26 03:53:24;;;;;;;9.55;7.60;;;;;;;12.43;88.61;100894.47;5043691;28;20044;-78
2021/09/26 03:55:49;;;;;;;9.80;7.65;;;;;;;12.43;89.85;100894.47;5054103;28;20061;-79
2021/09/26 03:58:15;;;;;;;8.07;7.05;;;;;;;12.42;89.37;100888.31;5052192;28;20077;-79
2021/09/26 04:00:40;;;;;;;7.93;6.00;;;;;;;12.43;88.77;100886.53;5053677;28;20037;-77
2021/09/26 04:03:05;;;;;;;9.73;7.78;;;;;;;12.40;88.87;100884.78;5051236;28;20033;-78
2021/09/26 04:05:31;;;;;;;12.10;8.85;;;;;;;12.37;89.18;100881.28;5052756;28;20037;-78
2021/09/26 04:07:56;;;;;;;9.82;7.75;;;;;;;12.35;88.81;100883.94;5050950;28;20026;-78
2021/09/26 04:10:22;;;;;;;10.02;8.48;;;;;;;12.33;88.87;100884.84;5053988;28;20044;-78
2021/09/26 04:12:47;;;;;;;8.85;7.18;;;;;;;12.34;88.65;100884.84;5052027;28;20052;-79
2021/09/26 04:15:13;;;;;;;9.75;7.13;;;;;;;12.37;88.59;100883.94;5027947;28;20093;-78
2021/09/26 04:17:39;;;;;;;8.35;6.25;;;;;;;12.38;87.87;100885.69;5052877;28;20036;-78
2021/09/26 04:20:06;;;;;;;10.10;7.38;;;;;;;12.38;88.08;100888.34;5053171;28;20128;-78
2021/09/26 04:22:32;;;;;;;9.13;7.20;;;;;;;12.36;87.77;100884.81;5052298;28;20032;-79
2021/09/26 04:24:57;;;;;;;8.02;7.10;;;;;;;12.31;87.81;100870.72;5052122;28;20053;-79
2021/09/26 04:27:22;;;;;;;8.90;6.75;;;;;;;12.25;88.04;100867.25;5052903;28;20041;-78
2021/09/26 04:29:49;;;;;;;7.30;6.60;;;;;;;12.23;87.75;100876.09;5051651;28;20041;-79
2021/09/26 04:32:14;;;;;;;10.93;8.52;;;;;;;12.21;87.60;100881.41;5052216;28;20059;-78
2021/09/26 04:34:40;;;;;;;9.25;7.43;;;;;;;12.19;87.81;100883.19;5051150;28;20120;-78
2021/09/26 04:37:05;;;;;;;8.57;7.68;;;;;;;12.16;88.31;100883.19;5052919;28;20114;-78
2021/09/26 04:39:30;;;;;;;10.20;7.38;;;;;;;12.18;88.24;100875.25;5050046;28;20525;-78
2021/09/26 04:41:56;;;;;;;11.55;8.43;;;;;;;12.16;88.19;100867.31;5053605;28;20055;-78
2021/09/26 04:44:21;;;;;;;8.57;7.68;;;;;;;12.17;88.39;100878.78;5051160;28;20056;-78
2021/09/26 04:46:46;;;;;;;9.40;8.05;;;;;;;12.18;88.09;100876.13;5027177;28;20063;-78
2021/09/26 04:49:12;;;;;;;8.88;7.70;;;;;;;12.19;88.44;100882.31;5052490;28;20037;-78
2021/09/26 04:51:38;;;;;;;9.60;8.60;;;;;;;12.18;88.28;100881.44;5051518;28;20037;-79
2021/09/26 04:54:03;;;;;;;11.40;8.80;;;;;;;12.19;88.45;100877.00;5050975;28;20032;-78
2021/09/26 04:56:29;;;;;;;9.35;7.95;;;;;;;12.19;88.15;100877.88;5051560;28;20101;-79
2021/09/26 04:58:54;;;;;;;10.90;9.75;;;;;;;12.19;88.44;100879.66;5053571;28;20037;-78
2021/09/26 05:01:20;;;;;;;12.07;9.82;;;;;;;12.17;88.39;100879.66;5050830;28;20037;-78
2021/09/26 05:03:45;;;;;;;13.15;10.10;;;;;;;12.19;88.35;100880.53;5052296;28;20059;-79
2021/09/26 05:06:11;;;;;;;9.18;8.10;;;;;;;12.20;88.03;100873.47;5046235;28;20087;-78
2021/09/26 05:08:37;;;;;;;11.23;10.07;;;;;;;12.22;88.25;100884.94;5040860;28;20038;-79
2021/09/26 05:11:02;;;;;;;14.77;9.82;;;;;;;12.20;87.93;100884.91;5028169;28;20475;-78
2021/09/26 05:13:28;;;;;;;12.25;9.82;;;;;;;12.21;88.15;100888.47;5048311;28;20032;-79
2021/09/26 05:15:53;;;;;;;10.30;8.55;;;;;;;12.22;88.07;100893.72;5052452;28;20505;-79
2021/09/26 05:18:18;;;;;;;8.32;7.28;;;;;;;12.26;87.83;100894.56;5052427;28;20044;-78
2021/09/26 05:20:45;;;;;;;10.50;8.18;;;;;;;12.25;87.86;100893.72;5052732;28;20503;-78
2021/09/26 05:23:10;;;;;;;8.82;7.68;;;;;;;12.20;87.90;100895.50;5051803;28;20033;-78
2021/09/26 05:25:36;;;;;;;9.73;7.80;;;;;;;12.20;88.52;100898.16;5048975;28;20064;-79
2021/09/26 05:28:02;;;;;;;9.88;8.63;;;;;;;12.26;88.11;100892.84;5050418;28;20041;-78
2021/09/26 05:30:29;;;;;;;9.82;8.88;;;;;;;12.23;88.19;100890.19;5053300;28;20037;-79
2021/09/26 05:32:55;;;;;;;11.23;9.00;;;;;;;12.25;88.49;100882.25;5053064;28;20044;-79
2021/09/26 05:35:21;;;;;;;9.68;8.48;;;;;;;12.30;88.74;100883.09;5051697;28;20037;-78
2021/09/26 05:37:46;;;;;;;10.15;8.73;;;;;;;12.36;88.34;100884.81;5054108;28;20044;-78
2021/09/26 05:40:12;;;;;;;9.27;7.63;;;;;;;12.42;88.07;100874.19;5051099;28;20053;-78
2021/09/26 05:42:37;;;;;;;9.88;8.02;;;;;;;12.45;88.51;100875.03;5053719;28;20037;-78
2021/09/26 05:45:03;;;;;;;9.43;8.40;;;;;;;12.51;88.02;100874.09;5052099;28;20037;-78
2021/09/26 05:47:28;;;;;;;10.43;8.73;;;;;;;12.56;88.27;100869.66;5053628;28;20048;-78
2021/09/26 05:49:54;;;;;;;9.32;8.32;;;;;;;12.61;88.04;100862.53;5053736;28;20037;-79
2021/09/26 05:52:19;;;;;;;8.80;7.43;;;;;;;12.66;87.40;100862.50;5052498;28;20029;-78
2021/09/26 05:54:45;;;;;;;10.48;8.95;;;;;;;12.70;88.14;100866.84;5053308;28;20032;-78
2021/09/26 05:57:10;;;;;;;8.93;7.90;;;;;;;12.74;87.55;100867.72;5052398;28;20040;-79
2021/09/26 05:59:38;;;;;;;8.95;8.05;;;;;;;12.79;87.39;100865.91;5055050;28;20064;-78
2021/09/26 06:02:08;;;;;;;9.85;8.45;;;;;;;12.84;87.37;100862.31;5042886;28;20041;-79
2021/09/26 06:04:33;;;;;;;10.88;7.93;;;;;;;12.86;87.09;100863.19;5054349;28;20037;-77
2021/09/26 06:06:59;;;;;;;11.90;9.80;;;;;;;12.88;86.66;100865.81;5052557;28;20029;-79
2021/09/26 06:09:24;;;;;;;9.52;7.63;;;;;;;12.91;86.79;100871.06;5053790;28;20380;-79
2021/09/26 06:11:50;;;;;;;10.65;8.48;;;;;;;12.96;86.54;100866.59;5051171;28;20017;-79
2021/09/26 06:14:15;;;;;;;9.10;7.63;;;;;;;12.98;86.57;100864.81;5054055;28;20045;-78
2021/09/26 06:16:40;;;;;;;8.95;7.68;;;;;;;13.00;86.57;100862.16;5051645;28;20048;-79
2021/09/26 06:19:06;;;;;;;10.57;9.35;;;;;;;12.96;86.54;100866.59;5054193;28;20047;-78
2021/09/26 06:21:32;;;;;;;9.13;8.02;;;;;;;13.04;86.68;100875.34;5051752;28;20064;-77
2021/09/26 06:23:57;;;;;;;7.95;7.15;;;;;;;13.11;86.93;100871.75;5053715;28;20465;-79
2021/09/26 06:26:25;;;;;;;9.55;8.45;;;;;;;13.24;86.75;100869.81;5042951;28;20037;-78
2021/09/26 06:28:50;;;;;;;11.52;8.88;;;;;;;13.37;86.07;100873.25;5052113;28;20037;-78
2021/09/26 06:31:16;;;;;;;9.23;8.15;;;;;;;13.49;86.31;100881.06;5051783;28;20036;-78
2021/09/26 06:33:41;;;;;;;9.38;8.45;;;;;;;13.63;86.15;100880.88;5052073;28;20047;-79
2021/09/26 06:36:07;;;;;;;10.80;9.18;;;;;;;13.76;86.04;100882.47;5051436;28;20037;-78
2021/09/26 06:38:32;;;;;;;11.35;10.23;;;;;;;13.84;86.38;100877.06;5053321;28;20502;-79
2021/09/26 06:40:58;;;;;;;12.85;9.90;;;;;;;13.93;86.25;100868.94;5051718;28;20067;-78
2021/09/26 06:43:23;;;;;;;12.13;9.52;;;;;;;14.08;86.55;100873.16;5053645;28;20399;-79
2021/09/26 06:45:48;;;;;;;10.48;9.10;;;;;;;14.22;86.63;100870.28;5051618;28;20037;-78
2021/09/26 06:48:14;;;;;;;10.57;9.10;;;;;;;14.34;86.60;100867.44;5054481;28;20036;-79
2021/09/26 06:50:39;;;;;;;10.25;9.10;;;;;;;14.46;86.43;100864.59;5052696;28;20037;-78
2021/09/26 06:53:04;;;;;;;12.68;10.55;;;;;;;14.62;86.41;100865.25;5027467;28;20037;-78
2021/09/26 06:55:30;;;;;;;11.00;9.50;;;;;;;14.77;86.18;100873.81;5055215;28;20098;-79
2021/09/26 06:57:55;;;;;;;11.07;9.77;;;;;;;14.87;85.88;100865.66;5048199;28;20056;-79
2021/09/26 07:00:21;;;;;;;9.85;8.85;;;;;;;14.97;85.84;100858.41;5058171;28;20056;-78
2021/09/26 07:02:46;;;;;;;12.15;8.95;;;;;;;15.14;85.76;100871.34;5056251;28;20042;-79
2021/09/26 07:05:12;;;;;;;10.15;8.57;;;;;;;15.30;85.23;100858.63;5059904;28;20033;-78
2021/09/26 07:07:37;;;;;;;10.73;8.82;;;;;;;15.46;85.02;100864.53;5030642;28;20029;-78
2021/09/26 07:10:05;;;;;;;9.57;8.52;;;;;;;15.62;84.86;100859.75;5060217;28;20037;-78
2021/09/26 07:12:30;;;;;;;10.15;8.02;;;;;;;15.73;84.63;100858.63;5030308;28;20097;-79
2021/09/26 07:15:00;;;;;;;9.35;7.82;;;;;;;15.87;83.88;100860.09;5059418;28;20040;-78
2021/09/26 07:17:26;;;;;;;10.93;8.63;;;;;;;16.01;83.94;100868.66;5051992;28;20380;-79
2021/09/26 07:19:51;;;;;;;9.23;8.23;;;;;;;16.14;83.58;100864.78;5050002;28;20035;-78
2021/09/26 07:22:19;;;;;;;8.32;7.25;;;;;;;16.28;83.18;100874.25;5056676;28;20076;-79
2021/09/26 07:24:44;;;;;;;10.25;7.70;;;;;;;16.40;82.75;100865.94;5049867;28;20041;-79
2021/09/26 07:27:15;;;;;;;7.47;5.85;;;;;;;16.54;82.31;100873.59;5057002;28;20059;-79
2021/09/26 07:29:40;;;;;;;7.60;6.30;;;;;;;16.64;81.85;100867.13;5059323;28;20115;-79
2021/09/26 07:32:06;;;;;;;7.78;6.60;;;;;;;16.70;81.63;100858.97;5056609;28;20443;-79
2021/09/26 07:34:31;;;;;;;7.50;6.63;;;;;;;16.83;81.28;100859.53;5058878;28;20102;-78
2021/09/26 07:36:57;;;;;;;8.07;6.30;;;;;;;16.97;80.74;100857.38;5057845;28;20041;-79
2021/09/26 07:39:22;;;;;;;7.53;6.70;;;;;;;17.06;80.37;100848.25;5058067;28;20087;-79
2021/09/26 07:41:47;;;;;;;6.72;6.03;;;;;;;17.17;80.32;100847.94;5058782;28;20040;-79
2021/09/26 07:44:13;;;;;;;8.32;6.93;;;;;;;17.25;80.03;100852.13;5057710;28;20084;-79
2021/09/26 07:46:40;;;;;;;6.55;5.85;;;;;;;17.34;79.86;100850.13;5059454;28;20036;-78
2021/09/26 07:49:06;;;;;;;9.35;7.05;;;;;;;17.47;79.62;100852.38;5057926;28;20116;-78
2021/09/26 07:51:31;;;;;;;8.80;6.53;;;;;;;17.65;79.38;100864.31;5057622;28;20045;-79
2021/09/26 07:53:56;;;;;;;8.25;6.10;;;;;;;17.77;78.64;100855.06;5057252;28;20036;-79
2021/09/26 07:56:22;;;;;;;7.55;6.18;;;;;;;17.90;78.50;100851.13;5054401;28;20097;-79
2021/09/26 07:58:47;;;;;;;6.68;5.97;;;;;;;18.00;78.44;100859.72;5065117;28;20040;-78
2021/09/26 08:01:12;;;;;;;6.85;6.10;;;;;;;18.07;78.37;100852.38;5056646;28;20045;-78
2021/09/26 08:03:38;;;;;;;8.55;5.65;;;;;;;18.15;77.67;100853.88;5031742;28;20029;-79
2021/09/26 08:06:04;;;;;;;8.30;6.18;;;;;;;18.31;77.03;100859.63;5056593;28;20494;-79
2021/09/26 08:08:29;;;;;;;7.75;6.00;;;;;;;18.54;76.61;100856.16;5057539;28;20438;-78
2021/09/26 08:10:54;;;;;;;9.27;5.47;;;;;;;18.76;75.85;100861.69;5057764;28;20471;-79
2021/09/26 08:13:19;;;;;;;7.88;5.75;;;;;;;18.95;75.54;100863.69;5056609;28;20087;-79
2021/09/26 08:15:45;;;;;;;6.93;4.78;;;;;;;19.14;74.53;100870.13;5040296;28;20032;-79
2021/09/26 08:18:10;;;;;;;5.88;4.85;;;;;;;19.32;74.07;100855.22;5056859;28;20045;-79
2021/09/26 08:20:36;;;;;;;6.60;4.82;;;;;;;19.49;73.23;100857.22;5059035;28;20056;-79
2021/09/26 08:23:01;;;;;;;7.50;5.13;;;;;;;19.68;72.83;100857.47;5055664;28;20041;-79
2021/09/26 08:25:26;;;;;;;7.30;4.80;;;;;;;19.86;72.07;100850.50;5050052;28;20033;-79
2021/09/26 08:27:52;;;;;;;10.13;4.82;;;;;;;19.90;71.86;100841.41;5057136;28;20075;-79
2021/09/26 08:30:19;;;;;;;6.30;4.63;;;;;;;20.03;71.22;100848.00;5050171;28;20044;-79
2021/09/26 08:32:46;;;;;;;5.60;4.80;;;;;;;20.16;70.17;100847.53;5056276;28;20048;-79
2021/09/26 08:35:12;;;;;;;5.95;4.30;;;;;;;20.31;70.01;100850.44;5057862;28;20045;-80
2021/09/26 08:37:38;;;;;;;7.10;4.43;;;;;;;20.46;69.93;100854.31;5056828;28;20100;-79
2021/09/26 08:40:05;;;;;;;6.43;3.97;;;;;;;20.64;69.08;100858.03;5059535;28;20093;-79
2021/09/26 08:42:30;;;;;;;6.45;4.32;;;;;;;20.78;68.76;100860.13;5032535;28;20093;-79
2021/09/26 08:44:57;;;;;;;7.05;4.35;;;;;;;21.00;68.15;100854.69;5056814;28;20029;-79
2021/09/26 08:47:22;;;;;;;5.30;4.05;;;;;;;21.21;67.57;100852.84;5056003;28;20041;-79
2021/09/26 08:49:47;;;;;;;8.13;4.20;;;;;;;21.39;67.05;100851.19;5057755;28;20051;-79
2021/09/26 08:52:13;;;;;;;6.85;3.92;;;;;;;21.68;66.67;100857.88;5054913;28;20040;-79
2021/09/26 08:54:39;;;;;;;6.93;3.85;;;;;;;21.95;65.47;100858.34;5040450;28;20037;-79
2021/09/26 08:57:05;;;;;;;5.68;3.92;;;;;;;;;;5046122;28;20041;-79
2021/09/26 08:59:31;;;;;;;5.05;3.60;;;;;;;22.24;63.50;100851.63;5057790;28;20154;-79
2021/09/26 09:01:56;;;;;;;4.50;3.30;;;;;;;22.40;63.27;100848.13;5036622;28;20402;-79
2021/09/26 09:04:36;;;;;;;5.10;3.60;;;;;;;22.50;61.26;100846.72;5055800;28;20080;-79
2021/09/26 09:07:03;;;;;;;6.63;4.03;;;;;;;22.52;60.92;100842.16;5051114;28;20654;-79
2021/09/26 09:09:28;;;;;;;6.90;3.92;;;;;;;22.60;61.07;100842.63;5057176;28;20033;-79
2021/09/26 09:12:03;;;;;;;4.68;3.38;;;;;;;22.69;60.37;100843.97;5052964;28;20025;-79
2021/09/26 09:14:47;;;;;;;4.32;3.30;;;;;;;22.73;59.67;100842.88;5055765;28;20156;-79
2021/09/26 09:17:33;;;;;;;7.05;3.28;;;;;;;22.75;58.40;100839.13;5056248;28;20498;-80
2021/09/26 09:20:20;;;;;;;6.00;3.53;;;;;;;22.72;57.22;100839.31;5052161;28;20131;-79
2021/09/26 09:22:56;;;;;;;5.70;3.20;;;;;;;22.75;59.05;100827.50;5048647;28;20042;-79
2021/09/26 09:25:58;;;;;;;5.78;3.78;;;;;;;22.86;57.44;100840.41;5053710;28;20048;-79
2021/09/26 09:28:24;;;;;;;5.60;3.30;;;;;;;22.91;58.57;100835.66;5052304;28;20043;-79
2021/09/26 09:30:53;;;;;;;6.90;3.35;;;;;;;22.92;56.85;100838.28;5053049;28;20036;-79
2021/09/26 09:33:20;;;;;;;5.20;3.28;;;;;;;23.03;57.58;100828.75;5053918;28;20030;-79
2021/09/26 09:35:52;;;;;;;4.05;3.05;;;;;;;23.14;57.66;100838.03;5054951;28;20045;-79
2021/09/26 09:38:29;;;;;;;4.97;3.17;;;;;;;23.12;55.97;100839.91;5054365;28;20076;-79
2021/09/26 09:40:56;;;;;;;5.78;2.90;;;;;;;23.15;57.40;100838.88;5051368;28;20114;-79
2021/09/26 09:43:23;;;;;;;4.53;3.42;;;;;;;23.29;57.69;100835.44;5055602;28;20068;-79
2021/09/26 09:45:54;;;;;;;4.38;3.22;;;;;;;23.42;57.69;100831.13;5052533;28;20044;-79
2021/09/26 09:48:25;;;;;;;5.38;3.17;;;;;;;23.54;56.34;100827.75;5026444;28;20057;-79
2021/09/26 09:50:52;;;;;;;10.65;3.17;;;;;;;23.62;56.31;100817.41;5022245;28;20033;-78
2021/09/26 09:53:30;;;;;;;5.15;3.45;;;;;;;23.70;54.38;100813.44;5050743;28;20029;-79
2021/09/26 09:55:57;;;;;;;5.10;3.30;;;;;;;23.74;54.61;100820.44;5028472;28;20041;-79
2021/09/26 09:58:22;;;;;;;5.15;3.17;;;;;;;23.84;54.98;100825.22;5056173;28;20039;-79
2021/09/26 10:00:55;;;;;;;8.02;6.13;;;;;;;23.92;54.21;100821.19;5051828;28;20053;-79
2021/09/26 10:03:35;;;;;;;6.53;4.47;;;;;;;24.01;53.75;100826.94;5052394;28;20039;-79
2021/09/26 10:06:02;;;;;;;4.43;3.75;;;;;;;24.14;54.08;100824.41;5054785;28;20030;-79
2021/09/26 10:08:32;;;;;;;4.35;3.25;;;;;;;24.18;52.61;100815.19;5052532;28;20059;-79
2021/09/26 10:11:05;;;;;;;4.40;3.22;;;;;;;24.23;53.19;100812.19;5030031;28;20043;-79
2021/09/26 10:13:30;;;;;;;6.95;3.28;;;;;;;24.31;52.96;100800.97;5050833;28;20397;-79
2021/09/26 10:15:56;;;;;;;5.72;2.95;;;;;;;24.42;52.96;100801.22;5028752;28;20037;-79
2021/09/26 10:18:21;;;;;;;6.63;3.28;;;;;;;24.48;52.86;100795.47;5051881;28;20049;-79
2021/09/26 10:20:47;;;;;;;5.80;3.33;;;;;;;24.59;52.67;100797.53;5053778;28;20037;-79
2021/09/26 10:23:12;;;;;;;3.90;3.20;;;;;;;24.66;51.99;100798.88;5051399;28;20085;-79
2021/09/26 10:25:38;;;;;;;6.50;3.30;;;;;;;24.72;51.39;100803.91;5026699;28;20042;-78
2021/09/26 10:28:03;;;;;;;4.35;3.08;;;;;;;24.78;52.05;100800.81;5052836;28;20045;-79
2021/09/26 10:30:29;;;;;;;5.70;2.92;;;;;;;24.83;51.58;100793.31;5049973;28;20071;-78
2021/09/26 10:32:55;;;;;;;5.97;2.67;;;;;;;24.93;51.90;100793.63;5051797;28;20120;-79
2021/09/26 10:35:21;;;;;;;3.80;2.78;;;;;;;25.02;51.62;100797.56;5024725;28;20052;-79
2021/09/26 10:37:46;;;;;;;5.38;3.17;;;;;;;24.96;50.49;100796.13;5052908;28;20037;-78
2021/09/26 10:40:15;;;;;;;6.10;2.70;;;;;;;25.05;50.56;100787.47;5049398;28;20048;-78
2021/09/26 10:42:40;;;;;;;4.68;2.75;;;;;;;25.18;50.74;100793.00;5047008;28;20029;-79
2021/09/26 10:45:09;;;;;;;4.88;3.10;;;;;;;25.22;49.87;100791.81;5046042;28;20037;-79
2021/09/26 10:47:36;;;;;;;4.50;2.70;;;;;;;25.33;50.38;100783.03;5020399;28;20029;-78
2021/09/26 10:50:02;;;;;;;5.13;2.85;;;;;;;25.39;49.46;100777.25;5045262;28;20083;-79
2021/09/26 10:52:47;;;;;;;6.20;3.35;;;;;;;25.49;48.94;100782.91;5040392;28;20046;-79
2021/09/26 10:55:21;;;;;;;3.50;2.53;;;;;;;25.53;48.13;100774.50;5024913;28;20060;-79
2021/09/26 10:57:53;;;;;;;4.30;2.80;;;;;;;25.61;48.10;100776.72;5024252;28;20033;-79
2021/09/26 11:00:56;;;;;;;5.72;3.35;;;;;;;25.71;48.44;100777.00;5050030;28;20052;-79
2021/09/26 11:03:42;;;;;;;4.03;2.72;;;;;;;25.90;48.69;100772.13;5048977;28;20056;-79
2021/09/26 11:06:22;;;;;;;11.63;3.38;;;;;;;25.97;47.24;100778.00;5050500;28;20068;-79
2021/09/26 11:08:53;;;;;;;4.50;2.28;;;;;;;26.03;47.76;100772.19;5036339;28;20037;-79
2021/09/26 11:11:32;;;;;;;4.13;3.13;;;;;;;26.10;46.82;100775.34;5019526;28;20033;-79
2021/09/26 11:13:58;;;;;;;3.65;2.45;;;;;;;26.16;47.18;100774.94;5050606;28;20140;-79
2021/09/26 11:16:23;;;;;;;4.68;2.70;;;;;;;26.13;47.09;100775.16;5050513;28;20067;-79
2021/09/26 11:18:59;;;;;;;4.45;2.83;;;;;;;26.18;45.67;100775.69;5051000;28;20028;-79
2021/09/26 11:21:37;;;;;;;4.07;2.60;;;;;;;26.22;46.13;100772.66;5051422;28;20476;-79
2021/09/26 11:24:06;;;;;;;5.68;2.50;;;;;;;26.33;46.17;100773.78;5049449;28;20110;-79
2021/09/26 11:27:15;;;;;;;4.25;3.00;;;;;;;26.58;45.75;100773.84;5045457;28;20414;-79
2021/09/26 11:29:43;;;;;;;6.00;2.80;;;;;;;26.82;45.58;100775.81;4972336;28;20054;-79